createdAt,value
2016-10-23T00:00:03.088Z,31.16
2016-10-23T00:01:03.149Z,31.09
2016-10-23T00:02:03.465Z,30.89
2016-10-23T00:03:03.160Z,31.07
2016-10-23T00:04:03.431Z,30.89
2016-10-23T00:05:03.174Z,31.18
2016-10-23T00:06:03.443Z,31.09
2016-10-23T00:07:03.449Z,31.09
2016-10-23T00:08:03.149Z,30.89
2016-10-23T00:09:03.470Z,30.79
2016-10-23T00:10:03.157Z,31.18
2016-10-23T00:11:03.832Z,30.79
2016-10-23T00:12:03.482Z,31.18
2016-10-23T00:13:03.180Z,30.99
2016-10-23T00:14:03.187Z,31.18
2016-10-23T00:15:03.610Z,30.69
2016-10-23T00:16:03.512Z,30.89
2016-10-23T00:17:03.525Z,30.89
2016-10-23T00:18:03.212Z,30.6
2016-10-23T00:19:03.219Z,31.18
2016-10-23T00:20:03.545Z,31.09
2016-10-23T00:21:03.334Z,31.09
2016-10-23T00:22:03.854Z,30.69
2016-10-23T00:23:03.569Z,30.99
2016-10-23T00:24:03.620Z,30.89
2016-10-23T00:25:03.575Z,30.99
2016-10-23T00:26:03.569Z,30.99
2016-10-23T00:27:03.326Z,30.69
2016-10-23T00:28:03.282Z,30.99
2016-10-23T00:29:03.292Z,30.6
2016-10-23T00:30:03.609Z,30.79
2016-10-23T00:31:03.620Z,30.69
2016-10-23T00:32:03.312Z,30.51
2016-10-23T00:33:03.685Z,30.89
2016-10-23T00:34:03.332Z,30.69
2016-10-23T00:35:03.703Z,30.69
2016-10-23T00:36:03.438Z,30.51
2016-10-23T00:37:03.708Z,30.6
2016-10-23T00:38:03.665Z,30.41
2016-10-23T00:39:03.670Z,30.51
2016-10-23T00:40:03.415Z,30.41
2016-10-23T00:41:03.689Z,30.69
2016-10-23T00:42:03.693Z,30.41
2016-10-23T00:43:03.698Z,30.41
2016-10-23T00:44:03.705Z,30.6
2016-10-23T00:45:03.854Z,30.41
2016-10-23T00:46:03.721Z,30.51
2016-10-23T00:47:03.714Z,30.79
2016-10-23T00:48:03.735Z,30.6
2016-10-23T00:49:03.427Z,30.31
2016-10-23T00:50:03.799Z,30.51
2016-10-23T00:51:03.757Z,30.51
2016-10-23T00:52:03.762Z,30.11
2016-10-23T00:53:03.456Z,30.41
2016-10-23T00:54:03.824Z,30.41
2016-10-23T00:55:03.519Z,30.21
2016-10-23T00:56:03.482Z,30.21
2016-10-23T00:57:03.797Z,30.6
2016-10-23T00:58:03.807Z,30.51
2016-10-23T00:59:03.810Z,30.11
2016-10-23T01:00:03.919Z,30.21
2016-10-23T01:01:03.825Z,30.31
2016-10-23T01:02:03.832Z,30.11
2016-10-23T01:03:03.525Z,30.11
2016-10-23T01:04:03.846Z,30.31
2016-10-23T01:05:03.901Z,30.21
2016-10-23T01:06:03.917Z,29.92
2016-10-23T01:07:03.603Z,30.31
2016-10-23T01:08:03.557Z,29.92
2016-10-23T01:09:03.882Z,30.11
2016-10-23T01:10:03.889Z,30.02
2016-10-23T01:11:03.631Z,29.92
2016-10-23T01:12:03.900Z,30.11
2016-10-23T01:13:03.906Z,30.21
2016-10-23T01:14:03.601Z,30.31
2016-10-23T01:15:03.922Z,30.11
2016-10-23T01:16:03.717Z,30.11
2016-10-23T01:17:03.935Z,30.11
2016-10-23T01:18:03.978Z,30.02
2016-10-23T01:19:03.997Z,30.21
2016-10-23T01:20:03.956Z,30.02
2016-10-23T01:21:03.651Z,30.13
2016-10-23T01:22:03.705Z,30.31
2016-10-23T01:23:04.028Z,30.13
2016-10-23T01:24:03.719Z,30.11
2016-10-23T01:25:03.675Z,30.13
2016-10-23T01:26:03.733Z,30.23
2016-10-23T01:27:03.741Z,29.94
2016-10-23T01:28:04.012Z,30.04
2016-10-23T01:29:04.031Z,30.04
2016-10-23T01:30:03.762Z,30.32
2016-10-23T01:31:04.083Z,30.13
2016-10-23T01:32:04.039Z,30.32
2016-10-23T01:33:04.045Z,30.42
2016-10-23T01:34:03.738Z,30.13
2016-10-23T01:35:04.058Z,30.13
2016-10-23T01:36:04.071Z,29.84
2016-10-23T01:37:03.810Z,30.32
2016-10-23T01:38:04.132Z,30.04
2016-10-23T01:39:03.774Z,29.84
2016-10-23T01:40:03.782Z,30.13
2016-10-23T01:41:04.154Z,30.42
2016-10-23T01:42:03.796Z,30.42
2016-10-23T01:43:04.116Z,29.84
2016-10-23T01:44:04.124Z,30.04
2016-10-23T01:45:03.867Z,29.94
2016-10-23T01:46:03.825Z,30.04
2016-10-23T01:47:03.832Z,29.94
2016-10-23T01:48:03.891Z,30.13
2016-10-23T01:49:04.162Z,29.84
2016-10-23T01:50:04.164Z,30.04
2016-10-23T01:51:04.183Z,30.04
2016-10-23T01:52:03.864Z,30.13
2016-10-23T01:53:04.192Z,30.13
2016-10-23T01:54:04.245Z,30.52
2016-10-23T01:55:03.887Z,30.52
2016-10-23T01:56:04.255Z,30.04
2016-10-23T01:57:04.266Z,29.84
2016-10-23T01:58:04.272Z,30.13
2016-10-23T01:59:03.917Z,29.84
2016-10-23T02:00:04.291Z,29.84
2016-10-23T02:01:03.935Z,30.04
2016-10-23T02:02:04.250Z,30.04
2016-10-23T02:03:03.945Z,30.04
2016-10-23T02:04:04.264Z,30.13
2016-10-23T02:05:03.957Z,30.13
2016-10-23T02:06:04.278Z,30.32
2016-10-23T02:07:04.387Z,30.04
2016-10-23T02:08:03.980Z,30.13
2016-10-23T02:09:04.351Z,29.94
2016-10-23T02:10:04.045Z,30.04
2016-10-23T02:11:04.050Z,29.94
2016-10-23T02:12:04.057Z,30.13
2016-10-23T02:13:04.016Z,30.23
2016-10-23T02:14:04.383Z,29.84
2016-10-23T02:15:04.393Z,30.13
2016-10-23T02:16:04.086Z,29.94
2016-10-23T02:17:04.355Z,30.04
2016-10-23T02:18:04.049Z,30.04
2016-10-23T02:19:04.056Z,30.13
2016-10-23T02:20:04.377Z,30.32
2016-10-23T02:21:04.436Z,30.23
2016-10-23T02:22:04.079Z,30.15
2016-10-23T02:23:04.117Z,29.94
2016-10-23T02:24:04.458Z,30.05
2016-10-23T02:25:04.149Z,29.94
2016-10-23T02:26:04.471Z,30.24
2016-10-23T02:27:04.114Z,30.15
2016-10-23T02:28:04.123Z,30.24
2016-10-23T02:29:04.130Z,30.04
2016-10-23T02:30:04.137Z,30.24
2016-10-23T02:31:04.145Z,30.15
2016-10-23T02:32:04.198Z,29.74
2016-10-23T02:33:04.471Z,29.94
2016-10-23T02:34:04.166Z,30.23
2016-10-23T02:35:04.176Z,30.23
2016-10-23T02:36:04.493Z,30.23
2016-10-23T02:37:04.341Z,29.94
2016-10-23T02:38:04.245Z,29.94
2016-10-23T02:39:04.563Z,30.04
2016-10-23T02:40:04.288Z,30.23
2016-10-23T02:41:04.626Z,29.74
2016-10-23T02:42:04.310Z,29.95
2016-10-23T02:43:04.278Z,29.84
2016-10-23T02:44:04.549Z,30.05
2016-10-23T02:45:04.300Z,30.05
2016-10-23T02:46:04.251Z,29.94
2016-10-23T02:47:04.310Z,30.24
2016-10-23T02:48:04.580Z,30.13
2016-10-23T02:49:04.584Z,29.57
2016-10-23T02:50:04.332Z,29.66
2016-10-23T02:51:04.598Z,29.66
2016-10-23T02:52:04.295Z,29.85
2016-10-23T02:53:04.303Z,29.47
2016-10-23T02:54:04.379Z,29.57
2016-10-23T02:55:04.722Z,29.47
2016-10-23T02:56:04.321Z,29.37
2016-10-23T02:57:04.691Z,29.66
2016-10-23T02:58:04.384Z,29.57
2016-10-23T02:59:04.706Z,29.47
2016-10-23T03:00:04.666Z,29.47
2016-10-23T03:01:04.360Z,29.57
2016-10-23T03:02:04.727Z,29.08
2016-10-23T03:03:04.735Z,29.08
2016-10-23T03:04:04.379Z,29.47
2016-10-23T03:05:04.387Z,28.98
2016-10-23T03:06:04.709Z,29.17
2016-10-23T03:07:04.714Z,29.17
2016-10-23T03:08:04.771Z,29.17
2016-10-23T03:09:04.420Z,28.98
2016-10-23T03:10:04.734Z,29.17
2016-10-23T03:11:04.825Z,29.17
2016-10-23T03:12:04.488Z,29.17
2016-10-23T03:13:04.501Z,29.08
2016-10-23T03:14:04.502Z,29.17
2016-10-23T03:15:04.509Z,29.08
2016-10-23T03:16:04.781Z,29.17
2016-10-23T03:17:04.786Z,29.17
2016-10-23T03:18:04.792Z,29.27
2016-10-23T03:19:04.487Z,29.17
2016-10-23T03:20:04.859Z,29.27
2016-10-23T03:21:04.812Z,29.17
2016-10-23T03:22:04.510Z,29.17
2016-10-23T03:23:04.516Z,29.27
2016-10-23T03:24:04.571Z,29.27
2016-10-23T03:25:04.533Z,29.27
2016-10-23T03:26:04.587Z,29.17
2016-10-23T03:27:04.955Z,29.27
2016-10-23T03:28:04.963Z,29.27
2016-10-23T03:29:04.557Z,29.27
2016-10-23T03:30:05.177Z,29.37
2016-10-23T03:31:04.621Z,29.37
2016-10-23T03:32:04.629Z,29.27
2016-10-23T03:33:04.588Z,29.27
2016-10-23T03:34:04.906Z,29.47
2016-10-23T03:35:04.914Z,29.27
2016-10-23T03:36:04.920Z,29.37
2016-10-23T03:37:04.929Z,29.27
2016-10-23T03:38:04.941Z,29.27
2016-10-23T03:39:04.944Z,29.27
2016-10-23T03:40:04.647Z,29.37
2016-10-23T03:41:05.024Z,29.27
2016-10-23T03:42:04.690Z,29.27
2016-10-23T03:43:04.660Z,29.27
2016-10-23T03:44:05.028Z,29.27
2016-10-23T03:45:05.037Z,29.27
2016-10-23T03:46:04.728Z,29.37
2016-10-23T03:47:05.049Z,29.37
2016-10-23T03:48:05.055Z,29.27
2016-10-23T03:49:05.061Z,28.98
2016-10-23T03:50:04.706Z,29.08
2016-10-23T03:51:05.029Z,29.27
2016-10-23T03:52:05.038Z,29.27
2016-10-23T03:53:05.041Z,29.17
2016-10-23T03:54:05.097Z,28.89
2016-10-23T03:55:05.107Z,29.17
2016-10-23T03:56:05.116Z,29.17
2016-10-23T03:57:05.119Z,29.17
2016-10-23T03:58:05.129Z,29.08
2016-10-23T03:59:05.088Z,29.27
2016-10-23T04:00:05.142Z,29.17
2016-10-23T04:01:04.839Z,29.08
2016-10-23T04:02:05.108Z,28.98
2016-10-23T04:03:05.167Z,29.08
2016-10-23T04:04:05.120Z,28.98
2016-10-23T04:05:05.128Z,28.98
2016-10-23T04:06:04.821Z,28.89
2016-10-23T04:07:04.931Z,28.98
2016-10-23T04:08:05.150Z,28.98
2016-10-23T04:09:05.208Z,29.17
2016-10-23T04:10:05.265Z,29.17
2016-10-23T04:11:05.172Z,29.08
2016-10-23T04:12:05.226Z,29
2016-10-23T04:13:05.184Z,28.89
2016-10-23T04:14:04.881Z,28.98
2016-10-23T04:15:04.934Z,28.98
2016-10-23T04:16:05.254Z,29.17
2016-10-23T04:17:05.213Z,29.08
2016-10-23T04:18:04.905Z,29.08
2016-10-23T04:19:04.913Z,29.08
2016-10-23T04:20:05.286Z,29.27
2016-10-23T04:21:04.930Z,29.08
2016-10-23T04:22:04.936Z,29.08
2016-10-23T04:23:05.304Z,29.08
2016-10-23T04:24:05.318Z,28.98
2016-10-23T04:25:05.378Z,29.08
2016-10-23T04:26:04.962Z,28.98
2016-10-23T04:27:04.970Z,29.08
2016-10-23T04:28:05.341Z,28.98
2016-10-23T04:29:05.348Z,28.98
2016-10-23T04:30:05.304Z,29.17
2016-10-23T04:31:05.363Z,28.98
2016-10-23T04:32:05.369Z,28.98
2016-10-23T04:33:05.463Z,28.98
2016-10-23T04:34:05.382Z,28.98
2016-10-23T04:35:05.342Z,28.98
2016-10-23T04:36:05.034Z,28.79
2016-10-23T04:37:05.354Z,28.98
2016-10-23T04:38:05.411Z,28.89
2016-10-23T04:39:05.367Z,28.89
2016-10-23T04:40:05.373Z,28.98
2016-10-23T04:41:05.380Z,28.69
2016-10-23T04:42:05.081Z,28.79
2016-10-23T04:43:05.395Z,28.69
2016-10-23T04:44:05.092Z,28.69
2016-10-23T04:45:05.413Z,28.89
2016-10-23T04:46:05.420Z,28.61
2016-10-23T04:47:05.425Z,28.79
2016-10-23T04:48:05.482Z,28.51
2016-10-23T04:49:05.180Z,28.7
2016-10-23T04:50:05.501Z,28.69
2016-10-23T04:51:05.139Z,28.5
2016-10-23T04:52:05.461Z,28.51
2016-10-23T04:53:05.473Z,28.61
2016-10-23T04:54:05.479Z,28.59
2016-10-23T04:55:05.171Z,28.7
2016-10-23T04:56:05.486Z,28.69
2016-10-23T04:57:05.500Z,28.51
2016-10-23T04:58:05.557Z,28.5
2016-10-23T04:59:05.200Z,28.41
2016-10-23T05:00:05.570Z,28.51
2016-10-23T05:01:05.576Z,27.93
2016-10-23T05:02:05.218Z,28.41
2016-10-23T05:03:05.540Z,27.93
2016-10-23T05:04:05.549Z,28.03
2016-10-23T05:05:05.609Z,28.51
2016-10-23T05:06:05.624Z,28.41
2016-10-23T05:07:05.566Z,27.93
2016-10-23T05:08:05.592Z,28.41
2016-10-23T05:09:05.270Z,28.41
2016-10-23T05:10:05.590Z,27.83
2016-10-23T05:11:05.283Z,28.13
2016-10-23T05:12:05.293Z,28.03
2016-10-23T05:13:05.661Z,28.13
2016-10-23T05:14:05.307Z,28.02
2016-10-23T05:15:05.676Z,28.22
2016-10-23T05:16:05.322Z,28.22
2016-10-23T05:17:05.691Z,28.13
2016-10-23T05:18:05.651Z,28.22
2016-10-23T05:19:05.654Z,28.22
2016-10-23T05:20:05.711Z,28.22
2016-10-23T05:21:05.716Z,28.22
2016-10-23T05:22:05.675Z,28.22
2016-10-23T05:23:05.371Z,28.32
2016-10-23T05:24:05.708Z,28.32
2016-10-23T05:25:05.383Z,28.22
2016-10-23T05:26:05.705Z,28.32
2016-10-23T05:27:05.713Z,28.32
2016-10-23T05:28:05.465Z,28.32
2016-10-23T05:29:20.290Z,28.22
2016-10-23T05:30:05.421Z,28.13
2016-10-23T05:31:05.740Z,28.41
2016-10-23T05:32:05.798Z,28.41
2016-10-23T05:33:05.443Z,28.51
2016-10-23T05:34:05.764Z,28.32
2016-10-23T05:35:05.771Z,28.22
2016-10-23T05:36:05.463Z,28.32
2016-10-23T05:37:05.521Z,28.41
2016-10-23T05:38:05.529Z,28.32
2016-10-23T05:39:05.848Z,28.22
2016-10-23T05:40:05.805Z,28.13
2016-10-23T05:41:05.813Z,28.22
2016-10-23T05:42:05.555Z,28.22
2016-10-23T05:43:05.826Z,28.22
2016-10-23T05:44:05.886Z,28.22
2016-10-23T05:45:05.839Z,28.13
2016-10-23T05:46:05.846Z,28.41
2016-10-23T05:47:05.857Z,28.32
2016-10-23T05:48:05.925Z,28.32
2016-10-23T05:49:05.564Z,28.32
2016-10-23T05:50:05.616Z,28.22
2016-10-23T05:51:05.673Z,28.32
2016-10-23T05:52:05.944Z,28.22
2016-10-23T05:53:05.635Z,28.41
2016-10-23T05:54:05.911Z,28.32
2016-10-23T05:55:05.962Z,28.32
2016-10-23T05:56:05.609Z,28.22
2016-10-23T05:57:05.616Z,28.22
2016-10-23T05:58:05.935Z,28.22
2016-10-23T05:59:05.941Z,28.13
2016-10-23T06:00:05.950Z,28.32
2016-10-23T06:01:05.643Z,28.13
2016-10-23T06:02:05.650Z,28.32
2016-10-23T06:03:05.969Z,28.41
2016-10-23T06:04:06.078Z,28.32
2016-10-23T06:05:05.671Z,28.22
2016-10-23T06:06:05.680Z,28.32
2016-10-23T06:07:05.684Z,28.32
2016-10-23T06:08:05.746Z,28.22
2016-10-23T06:09:05.799Z,28.32
2016-10-23T06:10:06.024Z,28.22
2016-10-23T06:11:06.031Z,28.13
2016-10-23T06:12:05.723Z,28.13
2016-10-23T06:13:05.781Z,28.22
2016-10-23T06:14:06.049Z,28.51
2016-10-23T06:15:05.797Z,28.22
2016-10-23T06:16:06.065Z,28.13
2016-10-23T06:17:06.073Z,28.32
2016-10-23T06:18:06.130Z,27.93
2016-10-23T06:19:06.134Z,28.32
2016-10-23T06:20:05.780Z,28.22
2016-10-23T06:21:05.788Z,28.22
2016-10-23T06:22:05.795Z,28.22
2016-10-23T06:23:05.853Z,28.32
2016-10-23T06:24:06.208Z,28.13
2016-10-23T06:25:06.130Z,28.13
2016-10-23T06:26:05.824Z,28.22
2016-10-23T06:27:06.204Z,28.22
2016-10-23T06:28:06.153Z,28.22
2016-10-23T06:29:06.260Z,28.22
2016-10-23T06:30:06.163Z,28.22
2016-10-23T06:31:06.174Z,28.32
2016-10-23T06:32:06.178Z,27.73
2016-10-23T06:33:05.876Z,28.13
2016-10-23T06:34:05.883Z,28.32
2016-10-23T06:35:05.940Z,28.22
2016-10-23T06:36:05.982Z,28.22
2016-10-23T06:37:05.905Z,28.13
2016-10-23T06:38:06.222Z,28.32
2016-10-23T06:39:05.970Z,28.13
2016-10-23T06:40:06.291Z,28.13
2016-10-23T06:41:06.296Z,28.32
2016-10-23T06:42:06.255Z,28.32
2016-10-23T06:43:06.260Z,28.32
2016-10-23T06:44:05.954Z,28.22
2016-10-23T06:45:06.277Z,28.22
2016-10-23T06:46:06.280Z,28.22
2016-10-23T06:47:06.026Z,28.22
2016-10-23T06:48:06.299Z,28.32
2016-10-23T06:49:05.990Z,28.32
2016-10-23T06:50:05.999Z,28.32
2016-10-23T06:51:06.006Z,28.22
2016-10-23T06:52:06.012Z,28.32
2016-10-23T06:53:06.383Z,28.13
2016-10-23T06:54:06.030Z,28.22
2016-10-23T06:55:06.398Z,28.22
2016-10-23T06:56:06.454Z,28.22
2016-10-23T06:57:06.413Z,28.22
2016-10-23T06:58:06.304Z,28.22
2016-10-23T06:59:06.377Z,28.22
2016-10-23T07:00:06.386Z,28.32
2016-10-23T07:01:06.396Z,28.22
2016-10-23T07:02:06.144Z,28.32
2016-10-23T07:03:06.092Z,28.22
2016-10-23T07:04:06.412Z,28.13
2016-10-23T07:05:06.422Z,28.03
2016-10-23T07:06:06.429Z,28.22
2016-10-23T07:07:06.434Z,28.41
2016-10-23T07:08:06.181Z,28.03
2016-10-23T07:09:06.497Z,28.13
2016-10-23T07:10:06.458Z,28.13
2016-10-23T07:11:06.522Z,28.03
2016-10-23T07:12:06.257Z,28.13
2016-10-23T07:13:06.168Z,28.13
2016-10-23T07:14:06.485Z,27.73
2016-10-23T07:15:06.432Z,28.13
2016-10-23T07:16:06.500Z,27.83
2016-10-23T07:17:06.195Z,28.13
2016-10-23T07:18:06.516Z,28.03
2016-10-23T07:19:06.211Z,28.03
2016-10-23T07:20:06.532Z,27.93
2016-10-23T07:21:06.542Z,27.93
2016-10-23T07:22:06.282Z,28.13
2016-10-23T07:23:06.551Z,28.13
2016-10-23T07:24:06.254Z,28.13
2016-10-23T07:25:06.261Z,28.03
2016-10-23T07:26:06.628Z,28.03
2016-10-23T07:27:06.319Z,27.93
2016-10-23T07:28:06.638Z,28.22
2016-10-23T07:29:06.283Z,27.83
2016-10-23T07:30:06.339Z,28.03
2016-10-23T07:31:06.298Z,28.03
2016-10-23T07:32:06.621Z,27.83
2016-10-23T07:33:06.625Z,27.93
2016-10-23T07:34:06.370Z,27.83
2016-10-23T07:35:06.639Z,27.83
2016-10-23T07:36:06.648Z,28.13
2016-10-23T07:37:06.653Z,27.93
2016-10-23T07:38:06.713Z,27.83
2016-10-23T07:39:06.669Z,27.64
2016-10-23T07:40:06.412Z,27.93
2016-10-23T07:41:06.371Z,27.93
2016-10-23T07:42:06.376Z,27.54
2016-10-23T07:43:06.521Z,27.93
2016-10-23T07:44:06.447Z,28.22
2016-10-23T07:45:06.712Z,27.35
2016-10-23T07:46:06.771Z,27.35
2016-10-23T07:47:06.729Z,28.03
2016-10-23T07:48:06.735Z,27.54
2016-10-23T07:49:06.428Z,27.83
2016-10-23T07:50:06.749Z,27.73
2016-10-23T07:51:06.806Z,27.83
2016-10-23T07:52:06.813Z,27.93
2016-10-23T07:53:06.822Z,27.64
2016-10-23T07:54:06.511Z,27.54
2016-10-23T07:55:06.784Z,27.73
2016-10-23T07:56:06.796Z,27.83
2016-10-23T07:57:06.537Z,27.73
2016-10-23T07:58:06.546Z,27.83
2016-10-23T07:59:06.550Z,27.64
2016-10-23T08:00:06.610Z,27.73
2016-10-23T08:01:06.519Z,27.73
2016-10-23T08:02:06.528Z,27.64
2016-10-23T08:03:06.583Z,27.66
2016-10-23T08:04:06.590Z,27.46
2016-10-23T08:05:07.160Z,27.25
2016-10-23T08:06:06.868Z,27.64
2016-10-23T08:07:06.615Z,27.54
2016-10-23T08:08:06.569Z,27.83
2016-10-23T08:09:06.579Z,27.64
2016-10-23T08:10:06.639Z,27.73
2016-10-23T08:11:06.646Z,27.75
2016-10-23T08:12:06.961Z,27.45
2016-10-23T08:13:06.615Z,27.45
2016-10-23T08:14:06.614Z,27.73
2016-10-23T08:15:06.987Z,27.75
2016-10-23T08:16:06.995Z,27.73
2016-10-23T08:17:07.008Z,27.73
2016-10-23T08:18:07.012Z,27.73
2016-10-23T08:19:06.967Z,27.83
2016-10-23T08:20:06.974Z,28.13
2016-10-23T08:21:06.706Z,27.83
2016-10-23T08:22:06.680Z,27.83
2016-10-23T08:23:07.148Z,27.25
2016-10-23T08:24:06.742Z,27.64
2016-10-23T08:25:07.022Z,27.35
2016-10-23T08:26:07.310Z,27.93
2016-10-23T08:27:07.030Z,27.25
2016-10-23T08:28:06.722Z,27.73
2016-10-23T08:29:06.731Z,26.96
2016-10-23T08:30:06.789Z,26.75
2016-10-23T08:31:06.746Z,26.95
2016-10-23T08:32:07.066Z,27.33
2016-10-23T08:33:06.769Z,26.65
2016-10-23T08:34:07.082Z,27.33
2016-10-23T08:35:06.783Z,27.53
2016-10-23T08:36:07.095Z,26.56
2016-10-23T08:37:06.840Z,26.27
2016-10-23T08:38:07.117Z,26.95
2016-10-23T08:39:07.127Z,26.65
2016-10-23T08:40:07.128Z,27.04
2016-10-23T08:41:07.141Z,27.92
2016-10-23T08:42:06.901Z,27.24
2016-10-23T08:43:07.151Z,27.92
2016-10-23T08:44:07.157Z,27.82
2016-10-23T08:45:06.851Z,27.72
2016-10-23T08:46:06.910Z,27.82
2016-10-23T08:47:06.917Z,27.33
2016-10-23T08:48:07.184Z,27.82
2016-10-23T08:49:06.888Z,27.72
2016-10-23T08:50:07.255Z,27.72
2016-10-23T08:51:07.211Z,27.62
2016-10-23T08:52:06.905Z,27.62
2016-10-23T08:53:06.960Z,27.82
2016-10-23T08:54:07.303Z,27.62
2016-10-23T08:55:06.924Z,27.82
2016-10-23T08:56:07.244Z,27.24
2016-10-23T08:57:07.250Z,27.25
2016-10-23T08:58:07.268Z,27.06
2016-10-23T08:59:06.956Z,27.15
2016-10-23T09:00:07.273Z,26.96
2016-10-23T09:01:07.331Z,26.96
2016-10-23T09:02:07.290Z,27.35
2016-10-23T09:03:07.345Z,27.54
2016-10-23T09:04:07.305Z,27.33
2016-10-23T09:05:07.316Z,27.43
2016-10-23T09:06:07.008Z,27.35
2016-10-23T09:07:07.017Z,27.54
2016-10-23T09:08:07.072Z,27.35
2016-10-23T09:09:07.398Z,26.96
2016-10-23T09:10:07.133Z,27.15
2016-10-23T09:11:07.046Z,27.35
2016-10-23T09:12:07.054Z,27.35
2016-10-23T09:13:07.063Z,27.72
2016-10-23T09:14:07.379Z,27.82
2016-10-23T09:15:07.440Z,27.82
2016-10-23T09:16:07.394Z,27.43
2016-10-23T09:17:07.404Z,27.64
2016-10-23T09:18:07.409Z,27.82
2016-10-23T09:19:07.671Z,27.43
2016-10-23T09:20:07.428Z,27.62
2016-10-23T09:21:07.437Z,27.35
2016-10-23T09:22:07.492Z,27.64
2016-10-23T09:23:07.450Z,27.43
2016-10-23T09:24:07.144Z,27.24
2016-10-23T09:25:07.466Z,27.62
2016-10-23T09:26:07.160Z,27.53
2016-10-23T09:27:07.168Z,27.72
2016-10-23T09:28:07.489Z,28.02
2016-10-23T09:29:07.508Z,27.62
2016-10-23T09:30:07.241Z,27.24
2016-10-23T09:31:07.199Z,27.53
2016-10-23T09:32:07.294Z,27.43
2016-10-23T09:33:07.280Z,27.04
2016-10-23T09:34:07.586Z,27.14
2016-10-23T09:35:07.594Z,27.82
2016-10-23T09:36:07.309Z,27.62
2016-10-23T09:37:07.293Z,27.92
2016-10-23T09:38:07.564Z,27.43
2016-10-23T09:39:07.630Z,28.11
2016-10-23T09:40:07.600Z,28.2
2016-10-23T09:41:07.586Z,28.4
2016-10-23T09:42:07.566Z,28.19
2016-10-23T09:43:07.287Z,28.3
2016-10-23T09:44:07.632Z,28.19
2016-10-23T09:45:07.318Z,28.29
2016-10-23T09:46:07.599Z,28.29
2016-10-23T09:47:07.467Z,28.39
2016-10-23T09:48:07.640Z,28.19
2016-10-23T09:49:07.731Z,28.19
2016-10-23T09:50:07.823Z,28.29
2016-10-23T09:51:07.745Z,28.09
2016-10-23T09:52:07.357Z,28.39
2016-10-23T09:53:07.749Z,28.29
2016-10-23T09:54:07.687Z,28.29
2016-10-23T09:55:07.378Z,28.39
2016-10-23T09:56:07.437Z,28.29
2016-10-23T09:57:07.911Z,28.29
2016-10-23T09:58:07.714Z,28
2016-10-23T09:59:07.410Z,28
2016-10-23T10:00:07.731Z,28
2016-10-23T10:01:07.824Z,28.68
2016-10-23T10:02:07.794Z,28.58
2016-10-23T10:03:07.750Z,28.77
2016-10-23T10:04:08.520Z,28.77
2016-10-23T10:05:07.768Z,28.68
2016-10-23T10:06:07.466Z,28.77
2016-10-23T10:07:07.505Z,28.87
2016-10-23T10:08:08.173Z,28.87
2016-10-23T10:09:07.628Z,28.87
2016-10-23T10:10:07.943Z,29.06
2016-10-23T10:11:07.812Z,28.97
2016-10-23T10:12:07.833Z,29.06
2016-10-23T10:13:07.511Z,28.97
2016-10-23T10:14:07.521Z,29.06
2016-10-23T10:15:07.526Z,28.97
2016-10-23T10:16:07.849Z,29.26
2016-10-23T10:17:07.859Z,29.26
2016-10-23T10:18:07.897Z,29.26
2016-10-23T10:19:07.559Z,29.46
2016-10-23T10:20:07.612Z,29.26
2016-10-23T10:21:07.887Z,29.36
2016-10-23T10:22:07.943Z,29.36
2016-10-23T10:23:07.638Z,29.26
2016-10-23T10:24:07.911Z,29.74
2016-10-23T10:25:07.916Z,29.06
2016-10-23T10:26:07.608Z,29.06
2016-10-23T10:27:07.979Z,29.55
2016-10-23T10:28:07.938Z,29.64
2016-10-23T10:29:07.681Z,29.46
2016-10-23T10:30:08.001Z,29.26
2016-10-23T10:31:07.958Z,29.46
2016-10-23T10:32:08.022Z,29.36
2016-10-23T10:33:08.075Z,29.64
2016-10-23T10:34:07.995Z,29.26
2016-10-23T10:35:07.679Z,29.46
2016-10-23T10:36:08.046Z,29.26
2016-10-23T10:37:07.689Z,29.44
2016-10-23T10:38:08.012Z,29.26
2016-10-23T10:39:08.018Z,29.36
2016-10-23T10:40:08.025Z,29.46
2016-10-23T10:41:07.722Z,29.05
2016-10-23T10:42:08.041Z,29.34
2016-10-23T10:43:07.741Z,29.92
2016-10-23T10:44:07.744Z,29.15
2016-10-23T10:45:08.069Z,29.24
2016-10-23T10:46:08.074Z,29.34
2016-10-23T10:47:07.765Z,29.34
2016-10-23T10:48:08.089Z,29.24
2016-10-23T10:49:08.102Z,29.34
2016-10-23T10:50:08.102Z,29.63
2016-10-23T10:51:08.132Z,29.53
2016-10-23T10:52:07.850Z,29.15
2016-10-23T10:53:08.169Z,29.03
2016-10-23T10:54:07.816Z,29.03
2016-10-23T10:55:07.822Z,29.33
2016-10-23T10:56:08.248Z,30
2016-10-23T10:57:08.153Z,29.52
2016-10-23T10:58:08.208Z,29.61
2016-10-23T10:59:08.165Z,29.33
2016-10-23T11:00:07.857Z,29.33
2016-10-23T11:01:07.868Z,29.33
2016-10-23T11:02:07.873Z,29.33
2016-10-23T11:03:07.882Z,29.23
2016-10-23T11:04:07.890Z,29.52
2016-10-23T11:05:07.900Z,29.33
2016-10-23T11:06:08.318Z,30.29
2016-10-23T11:07:08.282Z,29.33
2016-10-23T11:08:07.969Z,30
2016-10-23T11:09:08.292Z,29.33
2016-10-23T11:10:08.248Z,30.2
2016-10-23T11:11:08.290Z,30
2016-10-23T11:12:07.947Z,30.2
2016-10-23T11:13:08.268Z,30.1
2016-10-23T11:14:08.276Z,29.81
2016-10-23T11:15:07.973Z,30.2
2016-10-23T11:16:08.292Z,30.2
2016-10-23T11:17:07.984Z,29.91
2016-10-23T11:18:08.306Z,29.91
2016-10-23T11:19:07.999Z,30.29
2016-10-23T11:20:08.371Z,30.2
2016-10-23T11:21:08.325Z,29.91
2016-10-23T11:22:08.022Z,30.1
2016-10-23T11:23:08.397Z,29.81
2016-10-23T11:24:08.087Z,29.91
2016-10-23T11:25:08.094Z,30
2016-10-23T11:26:08.427Z,29.71
2016-10-23T11:27:08.056Z,29.71
2016-10-23T11:28:08.064Z,29.81
2016-10-23T11:29:08.075Z,29.61
2016-10-23T11:30:08.117Z,29.61
2016-10-23T11:31:08.084Z,29.61
2016-10-23T11:32:08.457Z,30.2
2016-10-23T11:33:08.100Z,29.91
2016-10-23T11:34:08.419Z,30.2
2016-10-23T11:35:08.465Z,30.2
2016-10-23T11:36:08.171Z,29.81
2016-10-23T11:37:08.490Z,30.2
2016-10-23T11:38:08.451Z,29.7
2016-10-23T11:39:08.142Z,30.29
2016-10-23T11:40:08.498Z,29.99
2016-10-23T11:41:08.471Z,30.2
2016-10-23T11:42:08.476Z,29.91
2016-10-23T11:43:08.484Z,30.39
2016-10-23T11:44:08.492Z,30.49
2016-10-23T11:45:08.500Z,30.1
2016-10-23T11:46:08.298Z,30.2
2016-10-23T11:47:08.513Z,29.81
2016-10-23T11:48:08.206Z,30.29
2016-10-23T11:49:08.526Z,30.2
2016-10-23T11:50:08.270Z,30.29
2016-10-23T11:51:08.542Z,30.51
2016-10-23T11:52:08.600Z,30
2016-10-23T11:53:08.561Z,30.2
2016-10-23T11:54:08.614Z,30.29
2016-10-23T11:55:08.257Z,30
2016-10-23T11:56:08.579Z,30.1
2016-10-23T11:57:08.639Z,30
2016-10-23T11:58:08.334Z,30.49
2016-10-23T11:59:08.287Z,30.29
2016-10-23T12:00:08.297Z,30.49
2016-10-23T12:01:08.614Z,30.39
2016-10-23T12:02:08.628Z,30.68
2016-10-23T12:03:08.678Z,30.58
2016-10-23T12:04:08.635Z,30.39
2016-10-23T12:05:08.796Z,30.88
2016-10-23T12:06:08.752Z,30.68
2016-10-23T12:07:08.351Z,30.39
2016-10-23T12:08:08.354Z,30.58
2016-10-23T12:09:08.676Z,30.49
2016-10-23T12:10:08.681Z,30.49
2016-10-23T12:11:08.697Z,30.68
2016-10-23T12:12:08.744Z,30.47
2016-10-23T12:13:08.702Z,30.96
2016-10-23T12:14:08.434Z,30.66
2016-10-23T12:15:08.407Z,31.16
2016-10-23T12:16:08.723Z,31.15
2016-10-23T12:17:08.728Z,30.96
2016-10-23T12:18:08.425Z,31.15
2016-10-23T12:19:08.433Z,31.05
2016-10-23T12:20:08.443Z,30.96
2016-10-23T12:21:08.825Z,30.96
2016-10-23T12:22:08.456Z,30.86
2016-10-23T12:23:08.773Z,31.05
2016-10-23T12:24:08.518Z,31.15
2016-10-23T12:25:08.839Z,31.26
2016-10-23T12:26:08.484Z,31.05
2016-10-23T12:27:08.853Z,31.15
2016-10-23T12:28:08.810Z,31.05
2016-10-23T12:29:08.873Z,30.76
2016-10-23T12:30:08.826Z,30.88
2016-10-23T12:31:08.519Z,31.25
2016-10-23T12:32:08.842Z,31.15
2016-10-23T12:33:08.846Z,31.15
2016-10-23T12:34:08.854Z,31.44
2016-10-23T12:35:08.910Z,31.44
2016-10-23T12:36:08.919Z,31.34
2016-10-23T12:37:08.563Z,31.15
2016-10-23T12:38:08.572Z,31.44
2016-10-23T12:39:08.889Z,31.34
2016-10-23T12:40:08.590Z,31.34
2016-10-23T12:41:09.005Z,31.44
2016-10-23T12:42:08.964Z,31.34
2016-10-23T12:43:08.604Z,31.36
2016-10-23T12:44:08.926Z,31.34
2016-10-23T12:45:09.032Z,31.34
2016-10-23T12:46:08.676Z,31.44
2016-10-23T12:47:08.997Z,31.34
2016-10-23T12:48:09.005Z,31.34
2016-10-23T12:49:08.964Z,31.34
2016-10-23T12:50:08.968Z,31.25
2016-10-23T12:51:09.078Z,31.34
2016-10-23T12:52:08.983Z,31.44
2016-10-23T12:53:08.680Z,31.44
2016-10-23T12:54:09.000Z,31.44